Maria — SV7156 — position and weather

sailwx.info

Track history (hours):
 
Tides and Currents Weather Stations Pressure Air Temp Water Temp Dewpoint Dewpoint Depression Visibility Wind Speed Wind Dir Waves Ship Positions

Maria

Last reported at 2016-Jun-27 17:33 UTC. Time now 2016-Jun-28 20:41 UTC.
Position N 37°58' E 023°35'.

Length 74 m; draft 4.5 m.

Type: Ship. MMSI: 237493000.

Date/timePositionNaut miles runAvg speedWind from/ knotsBaromVisibWave heightAir tempDewpointWater temp
2016-Jun-27 17:33N 37°58' E 023°35'4 4.1
2016-Jun-27 16:33N 38°02' E 023°36'0 0.1
2016-Jun-27 15:33N 38°02' E 023°36'0 0.0
2016-Jun-27 14:33N 38°02' E 023°36'4 4.3
2016-Jun-27 13:33N 37°57' E 023°35'0 0.0
2016-Jun-25 11:07N 37°58' E 023°35'1 1.6
2016-Jun-25 10:33N 37°57' E 023°36'0 0.0
2016-Jun-25 09:33N 37°57' E 023°36'0 0.0
2016-Jun-25 08:33N 37°57' E 023°36'0 0.0
2016-Jun-25 07:33N 37°57' E 023°36'0 0.0
2016-Jun-25 06:33N 37°57' E 023°36'1 0.0
2016-Jun-24 10:06N 37°58' E 023°35'0 0.0
2016-Jun-24 09:33N 37°58' E 023°35'0 0.0
2016-Jun-24 08:33N 37°58' E 023°35'0 0.0
2016-Jun-24 07:33N 37°58' E 023°35'4 1.4
2016-Jun-24 04:34N 38°01' E 023°32'0 0.0
2016-Jun-24 03:33N 38°01' E 023°33'0 0.0
2016-Jun-24 02:34N 38°01' E 023°32'0 0.0
2016-Jun-24 01:33N 38°01' E 023°32'0 0.0
2016-Jun-24 00:33N 38°01' E 023°32'0 0.0
2016-Jun-23 23:33N 38°01' E 023°32'0 0.0
2016-Jun-23 22:33N 38°01' E 023°32'0 0.0
2016-Jun-23 21:34N 38°01' E 023°32'0 0.0
2016-Jun-23 20:33N 38°01' E 023°32'0 0.4
2016-Jun-23 19:33N 38°01' E 023°32'0 0.0
2016-Jun-23 18:33N 38°01' E 023°32'0 0.0
2016-Jun-23 17:33N 38°01' E 023°32'4 4.4
2016-Jun-23 16:33N 37°57' E 023°35'3 2.8
2016-Jun-23 15:33N 37°56' E 023°38'0 0.0
2016-Jun-23 14:33N 37°56' E 023°38'0 0.0
2016-Jun-23 13:33N 37°56' E 023°38'0 0.0
2016-Jun-23 12:33N 37°56' E 023°38'0 0.0
2016-Jun-23 11:33N 37°56' E 023°38'0 0.0
2016-Jun-23 10:33N 37°56' E 023°38'0 0.1
2016-Jun-23 09:33N 37°56' E 023°38'3 3.0
2016-Jun-23 08:33N 37°58' E 023°35'0 0.0
2016-Jun-22 17:14N 37°58' E 023°35'3 4.2
2016-Jun-22 16:33N 38°00' E 023°33'2 2.4
2016-Jun-22 15:33N 38°02' E 023°36'0 0.0
2016-Jun-22 14:33N 38°02' E 023°36'0 0.0
2016-Jun-22 13:33N 38°02' E 023°36'0 0.0
2016-Jun-22 12:33N 38°02' E 023°36'0 0.0
2016-Jun-22 11:33N 38°02' E 023°36'0 0.0
2016-Jun-22 10:31N 38°02' E 023°36'0 0.0
2016-Jun-22 09:31N 38°02' E 023°36'1 0.6
2016-Jun-22 08:33N 38°02' E 023°35'0 0.0
2016-Jun-22 07:33N 38°02' E 023°35'0 0.0
2016-Jun-22 06:33N 38°02' E 023°35'0 0.0
2016-Jun-22 05:33N 38°02' E 023°35'0 0.0
2016-Jun-22 04:33N 38°02' E 023°35'4 4.3
2016-Jun-22 03:33N 37°57' E 023°35'  
2016-Jun-19 10:33N 37°57' E 023°36'0 0.3
2016-Jun-19 09:33N 37°57' E 023°36'0 0.0
2016-Jun-19 08:33N 37°57' E 023°36'2 0.1
2016-Jun-18 17:34N 37°56' E 023°34'4 3.8
2016-Jun-18 16:34N 37°53' E 023°32'0 0.1
2016-Jun-18 15:34N 37°52' E 023°32'0 0.0
2016-Jun-18 14:34N 37°52' E 023°32'0 0.0
2016-Jun-18 13:33N 37°53' E 023°32'0 0.1
2016-Jun-18 12:34N 37°53' E 023°32'0 0.0
2016-Jun-18 11:34N 37°53' E 023°32'0 0.0
2016-Jun-18 10:34N 37°53' E 023°32'1 0.8
2016-Jun-18 09:33N 37°53' E 023°32'5 4.7
2016-Jun-18 08:33N 37°58' E 023°35'0 0.0
2016-Jun-18 07:34N 37°58' E 023°35'0 0.0
2016-Jun-18 06:34N 37°58' E 023°35'2 1.7
2016-Jun-18 05:34N 37°58' E 023°33'4 3.9
2016-Jun-18 04:33N 38°02' E 023°35'0 0.0
2016-Jun-18 03:34N 38°02' E 023°35'0 0.0
2016-Jun-18 02:33N 38°02' E 023°35'0 0.0
2016-Jun-18 01:33N 38°02' E 023°35'0 0.0
2016-Jun-18 00:33N 38°02' E 023°35'0 0.0
2016-Jun-17 23:33N 38°02' E 023°35'0 0.0
2016-Jun-17 22:33N 38°02' E 023°35'0 0.0
2016-Jun-17 21:33N 38°02' E 023°35'0 0.0
2016-Jun-17 20:33N 38°02' E 023°35'1 0.9
2016-Jun-17 19:33N 38°02' E 023°36'0 0.0
2016-Jun-17 18:33N 38°02' E 023°36'  
Track history (hours):
 
Tides and Currents Weather Stations Pressure Air Temp Water Temp Dewpoint Dewpoint Depression Visibility Wind Speed Wind Dir Waves Ship Positions

Maria

Last reported at 2016-Jun-27 17:33 UTC. Time now 2016-Jun-28 20:41 UTC.
Position N 37°58' E 023°35'.

Length 74 m; draft 4.5 m.

Type: Ship. MMSI: 237493000.

Date/timePositionNaut miles runAvg speedWind from/ knotsBaromVisibWave heightAir tempDewpointWater temp
2016-Jun-27 17:33N 37°58' E 023°35'4 4.1
2016-Jun-27 16:33N 38°02' E 023°36'0 0.1
2016-Jun-27 15:33N 38°02' E 023°36'0 0.0
2016-Jun-27 14:33N 38°02' E 023°36'4 4.3
2016-Jun-27 13:33N 37°57' E 023°35'0 0.0
2016-Jun-25 11:07N 37°58' E 023°35'1 1.6
2016-Jun-25 10:33N 37°57' E 023°36'0 0.0
2016-Jun-25 09:33N 37°57' E 023°36'0 0.0
2016-Jun-25 08:33N 37°57' E 023°36'0 0.0
2016-Jun-25 07:33N 37°57' E 023°36'0 0.0
2016-Jun-25 06:33N 37°57' E 023°36'1 0.0
2016-Jun-24 10:06N 37°58' E 023°35'0 0.0
2016-Jun-24 09:33N 37°58' E 023°35'0 0.0
2016-Jun-24 08:33N 37°58' E 023°35'0 0.0
2016-Jun-24 07:33N 37°58' E 023°35'4 1.4
2016-Jun-24 04:34N 38°01' E 023°32'0 0.0
2016-Jun-24 03:33N 38°01' E 023°33'0 0.0
2016-Jun-24 02:34N 38°01' E 023°32'0 0.0
2016-Jun-24 01:33N 38°01' E 023°32'0 0.0
2016-Jun-24 00:33N 38°01' E 023°32'0 0.0
2016-Jun-23 23:33N 38°01' E 023°32'0 0.0
2016-Jun-23 22:33N 38°01' E 023°32'0 0.0
2016-Jun-23 21:34N 38°01' E 023°32'0 0.0
2016-Jun-23 20:33N 38°01' E 023°32'0 0.4
2016-Jun-23 19:33N 38°01' E 023°32'0 0.0
2016-Jun-23 18:33N 38°01' E 023°32'0 0.0
2016-Jun-23 17:33N 38°01' E 023°32'4 4.4
2016-Jun-23 16:33N 37°57' E 023°35'3 2.8
2016-Jun-23 15:33N 37°56' E 023°38'0 0.0
2016-Jun-23 14:33N 37°56' E 023°38'0 0.0
2016-Jun-23 13:33N 37°56' E 023°38'0 0.0
2016-Jun-23 12:33N 37°56' E 023°38'0 0.0
2016-Jun-23 11:33N 37°56' E 023°38'0 0.0
2016-Jun-23 10:33N 37°56' E 023°38'0 0.1
2016-Jun-23 09:33N 37°56' E 023°38'3 3.0
2016-Jun-23 08:33N 37°58' E 023°35'0 0.0
2016-Jun-22 17:14N 37°58' E 023°35'3 4.2
2016-Jun-22 16:33N 38°00' E 023°33'2 2.4
2016-Jun-22 15:33N 38°02' E 023°36'0 0.0
2016-Jun-22 14:33N 38°02' E 023°36'0 0.0
2016-Jun-22 13:33N 38°02' E 023°36'0 0.0
2016-Jun-22 12:33N 38°02' E 023°36'0 0.0
2016-Jun-22 11:33N 38°02' E 023°36'0 0.0
2016-Jun-22 10:31N 38°02' E 023°36'0 0.0
2016-Jun-22 09:31N 38°02' E 023°36'1 0.6
2016-Jun-22 08:33N 38°02' E 023°35'0 0.0
2016-Jun-22 07:33N 38°02' E 023°35'0 0.0
2016-Jun-22 06:33N 38°02' E 023°35'0 0.0
2016-Jun-22 05:33N 38°02' E 023°35'0 0.0
2016-Jun-22 04:33N 38°02' E 023°35'4 4.3
2016-Jun-22 03:33N 37°57' E 023°35'  
2016-Jun-19 10:33N 37°57' E 023°36'0 0.3
2016-Jun-19 09:33N 37°57' E 023°36'0 0.0
2016-Jun-19 08:33N 37°57' E 023°36'2 0.1
2016-Jun-18 17:34N 37°56' E 023°34'4 3.8
2016-Jun-18 16:34N 37°53' E 023°32'0 0.1
2016-Jun-18 15:34N 37°52' E 023°32'0 0.0
2016-Jun-18 14:34N 37°52' E 023°32'0 0.0
2016-Jun-18 13:33N 37°53' E 023°32'0 0.1
2016-Jun-18 12:34N 37°53' E 023°32'0 0.0
2016-Jun-18 11:34N 37°53' E 023°32'0 0.0
2016-Jun-18 10:34N 37°53' E 023°32'1 0.8
2016-Jun-18 09:33N 37°53' E 023°32'5 4.7
2016-Jun-18 08:33N 37°58' E 023°35'0 0.0
2016-Jun-18 07:34N 37°58' E 023°35'0 0.0
2016-Jun-18 06:34N 37°58' E 023°35'2 1.7
2016-Jun-18 05:34N 37°58' E 023°33'4 3.9
2016-Jun-18 04:33N 38°02' E 023°35'0 0.0
2016-Jun-18 03:34N 38°02' E 023°35'0 0.0
2016-Jun-18 02:33N 38°02' E 023°35'0 0.0
2016-Jun-18 01:33N 38°02' E 023°35'0 0.0
2016-Jun-18 00:33N 38°02' E 023°35'0 0.0
2016-Jun-17 23:33N 38°02' E 023°35'0 0.0
2016-Jun-17 22:33N 38°02' E 023°35'0 0.0
2016-Jun-17 21:33N 38°02' E 023°35'0 0.0
2016-Jun-17 20:33N 38°02' E 023°35'1 0.9
2016-Jun-17 19:33N 38°02' E 023°36'0 0.0
2016-Jun-17 18:33N 38°02' E 023°36'  

Dump ship's entire track history